createdAt,value
2019-01-17T00:00:58.752Z,19.47
2019-01-17T00:03:44.641Z,15.60
2019-01-17T00:06:32.143Z,15.53
2019-01-17T00:09:37.341Z,16.87
2019-01-17T00:12:24.493Z,16.20
2019-01-17T00:15:14.357Z,15.20
2019-01-17T00:17:56.067Z,15.30
2019-01-17T00:21:01.122Z,17.40
2019-01-17T00:23:47.400Z,16.80
2019-01-17T00:26:41.360Z,18.97
2019-01-17T00:29:31.520Z,18.83
2019-01-17T00:32:27.702Z,21.00
2019-01-17T00:35:05.836Z,21.00
2019-01-17T00:37:52.391Z,22.87
2019-01-17T00:40:45.661Z,21.57
2019-01-17T00:43:41.638Z,21.57
2019-01-17T00:46:28.988Z,22.10
2019-01-17T00:49:14.856Z,22.70
2019-01-17T00:52:10.887Z,23.97
2019-01-17T00:54:57.969Z,23.30
2019-01-17T00:57:47.900Z,23.80
2019-01-17T01:00:25.906Z,22.90
2019-01-17T01:03:19.523Z,22.10
2019-01-17T01:06:24.606Z,22.57
2019-01-17T01:09:11.809Z,21.40
2019-01-17T01:11:57.182Z,23.20
2019-01-17T01:14:44.293Z,22.07
2019-01-17T01:17:40.465Z,21.97
2019-01-17T01:20:29.520Z,21.50
2019-01-17T01:23:16.819Z,22.27
2019-01-17T01:26:21.992Z,21.37
2019-01-17T01:29:21.245Z,21.03
2019-01-17T01:32:04.209Z,21.67
2019-01-17T01:35:03.287Z,22.77
2019-01-17T01:37:53.038Z,21.03
2019-01-17T01:40:40.084Z,22.40
2019-01-17T01:43:28.711Z,21.10
2019-01-17T01:46:24.810Z,21.30
2019-01-17T01:49:14.582Z,22.07
2019-01-17T01:52:02.039Z,20.73
2019-01-17T01:54:29.612Z,20.60
2019-01-17T01:56:57.369Z,21.27
2019-01-17T01:59:25.924Z,22.03
2019-01-17T02:01:53.585Z,20.80
2019-01-17T02:04:21.204Z,21.30
2019-01-17T02:06:49.056Z,20.93
2019-01-17T02:09:16.599Z,21.47
2019-01-17T02:11:44.244Z,20.43
2019-01-17T02:14:11.891Z,20.03
2019-01-17T02:16:39.534Z,19.77
2019-01-17T02:19:07.213Z,20.00
2019-01-17T02:21:34.900Z,20.50
2019-01-17T02:24:02.469Z,20.20
2019-01-17T02:26:31.117Z,18.20
2019-01-17T02:28:58.656Z,20.67
2019-01-17T02:31:26.301Z,17.57
2019-01-17T02:33:53.830Z,18.93
2019-01-17T02:36:21.462Z,18.23
2019-01-17T02:38:49.013Z,17.63
2019-01-17T02:41:16.722Z,17.90
2019-01-17T02:43:44.381Z,17.73
2019-01-17T02:46:11.966Z,18.53
2019-01-17T02:48:39.489Z,18.13
2019-01-17T02:51:07.186Z,18.07
2019-01-17T02:53:34.757Z,16.50
2019-01-17T02:56:02.388Z,17.30
2019-01-17T02:58:30.036Z,16.90
2019-01-17T03:00:57.631Z,16.63
2019-01-17T03:03:25.187Z,16.23
2019-01-17T03:05:53.250Z,17.60
2019-01-17T03:08:20.938Z,16.30
2019-01-17T03:10:48.502Z,15.53
2019-01-17T03:13:16.091Z,16.10
2019-01-17T03:15:43.723Z,16.07
2019-01-17T03:18:11.323Z,15.83
2019-01-17T03:20:38.948Z,15.47
2019-01-17T03:23:06.540Z,14.57
2019-01-17T03:25:36.055Z,15.40
2019-01-17T03:28:03.643Z,14.20
2019-01-17T03:30:31.905Z,14.27
2019-01-17T03:32:59.514Z,14.03
2019-01-17T03:35:27.093Z,14.63
2019-01-17T03:37:54.715Z,14.70
2019-01-17T03:40:22.337Z,14.67
2019-01-17T03:42:49.888Z,14.57
2019-01-17T03:45:17.599Z,14.40
2019-01-17T03:47:46.016Z,14.63
2019-01-17T03:50:14.705Z,15.33
2019-01-17T03:52:42.624Z,15.30
2019-01-17T03:55:15.792Z,14.80
2019-01-17T03:57:43.382Z,14.60
2019-01-17T04:00:16.514Z,15.10
2019-01-17T04:02:44.083Z,15.57
2019-01-17T04:05:11.714Z,16.57
2019-01-17T04:07:39.423Z,16.00
2019-01-17T04:10:08.751Z,16.40
2019-01-17T04:12:36.327Z,15.53
2019-01-17T04:15:04.865Z,17.00
2019-01-17T04:17:32.522Z,15.87
2019-01-17T04:20:00.226Z,15.63
2019-01-17T04:22:27.957Z,14.50
2019-01-17T04:24:57.438Z,15.77
2019-01-17T04:27:25.299Z,13.93
2019-01-17T04:29:53.042Z,16.60
2019-01-17T04:32:20.827Z,14.73
2019-01-17T04:34:48.553Z,15.60
2019-01-17T04:37:16.218Z,15.40
2019-01-17T04:39:43.914Z,15.37
2019-01-17T04:42:11.620Z,15.10
2019-01-17T04:44:39.321Z,15.93
2019-01-17T04:47:07.038Z,14.33
2019-01-17T04:49:34.743Z,15.30
2019-01-17T04:52:02.416Z,15.80
2019-01-17T04:54:30.091Z,14.97
2019-01-17T04:56:57.736Z,16.87
2019-01-17T04:59:25.400Z,17.73
2019-01-17T05:01:53.112Z,16.57
2019-01-17T05:04:20.791Z,15.67
2019-01-17T05:06:48.550Z,15.57
2019-01-17T05:09:16.204Z,14.63
2019-01-17T05:11:43.841Z,14.60
2019-01-17T05:14:11.566Z,13.93
2019-01-17T05:16:39.231Z,14.47
2019-01-17T05:19:06.853Z,14.57
2019-01-17T05:21:34.581Z,14.50
2019-01-17T05:24:02.951Z,14.77
2019-01-17T05:26:30.635Z,16.00
2019-01-17T05:28:58.347Z,16.27
2019-01-17T05:31:25.963Z,17.53
2019-01-17T05:33:53.477Z,17.00
2019-01-17T05:36:21.141Z,16.20
2019-01-17T05:38:48.679Z,17.50
2019-01-17T05:41:16.310Z,16.57
2019-01-17T05:43:43.952Z,17.13
2019-01-17T05:46:11.723Z,16.40
2019-01-17T05:48:39.317Z,16.13
2019-01-17T05:51:06.972Z,17.10
2019-01-17T05:53:34.524Z,16.70
2019-01-17T05:56:02.194Z,16.00
2019-01-17T05:58:29.756Z,15.17
2019-01-17T06:00:57.530Z,15.37
2019-01-17T06:03:25.492Z,14.63
2019-01-17T06:05:53.140Z,15.33
2019-01-17T06:08:20.704Z,15.47
2019-01-17T06:10:48.253Z,14.87
2019-01-17T06:13:15.904Z,14.53
2019-01-17T06:15:44.009Z,15.53
2019-01-17T06:18:11.658Z,17.10
2019-01-17T06:20:39.530Z,17.10
2019-01-17T06:23:07.232Z,16.63
2019-01-17T06:25:34.868Z,16.03
2019-01-17T06:28:02.440Z,16.70
2019-01-17T06:30:30.138Z,15.83
2019-01-17T06:32:57.689Z,16.07
2019-01-17T06:35:25.361Z,17.20
2019-01-17T06:37:53.014Z,17.47
2019-01-17T06:40:23.489Z,15.60
2019-01-17T06:42:51.095Z,16.23
2019-01-17T06:45:18.767Z,17.80
2019-01-17T06:47:46.347Z,17.13
2019-01-17T06:50:14.018Z,17.80
2019-01-17T06:52:41.600Z,16.83
2019-01-17T06:55:09.427Z,17.03
2019-01-17T06:57:37.028Z,16.93
2019-01-17T07:00:05.716Z,16.60
2019-01-17T07:02:33.305Z,17.00
2019-01-17T07:05:01.119Z,16.77
2019-01-17T07:07:28.750Z,15.50
2019-01-17T07:09:56.409Z,16.23
2019-01-17T07:12:24.052Z,16.03
2019-01-17T07:14:51.758Z,16.43
2019-01-17T07:17:19.337Z,16.37
2019-01-17T07:19:47.063Z,15.20
2019-01-17T07:22:14.686Z,14.73
2019-01-17T07:24:42.388Z,15.20
2019-01-17T07:27:10.099Z,16.43
2019-01-17T07:29:37.874Z,15.93
2019-01-17T07:32:05.660Z,16.63
2019-01-17T07:34:33.495Z,16.30
2019-01-17T07:37:01.143Z,14.60
2019-01-17T07:39:28.826Z,15.60
2019-01-17T07:41:56.518Z,15.63
2019-01-17T07:44:24.218Z,14.33
2019-01-17T07:46:51.874Z,14.27
2019-01-17T07:49:19.551Z,14.00
2019-01-17T07:51:47.265Z,13.20
2019-01-17T07:54:14.990Z,13.70
2019-01-17T07:56:42.702Z,14.73
2019-01-17T07:59:10.466Z,13.23
2019-01-17T08:01:38.259Z,14.73
2019-01-17T08:04:05.914Z,14.87
2019-01-17T08:06:33.662Z,15.13
2019-01-17T08:09:01.464Z,14.97
2019-01-17T08:11:29.189Z,15.87
2019-01-17T08:13:56.885Z,15.03
2019-01-17T08:16:24.531Z,16.87
2019-01-17T08:18:52.612Z,18.60
2019-01-17T08:21:20.224Z,16.33
2019-01-17T08:23:48.956Z,16.17
2019-01-17T08:26:16.613Z,16.00
2019-01-17T08:28:44.202Z,15.30
2019-01-17T08:31:11.881Z,13.00
2019-01-17T08:33:39.466Z,13.10
2019-01-17T08:36:07.154Z,14.03
2019-01-17T08:38:34.721Z,12.87
2019-01-17T08:41:02.392Z,12.30
2019-01-17T08:43:29.929Z,12.37
2019-01-17T08:45:57.641Z,11.10
2019-01-17T08:48:25.188Z,12.47
2019-01-17T08:50:52.801Z,13.10
2019-01-17T08:53:20.375Z,12.80
2019-01-17T08:55:48.108Z,12.43
2019-01-17T08:58:16.182Z,15.17
2019-01-17T09:00:43.851Z,14.73
2019-01-17T09:03:12.629Z,13.67
2019-01-17T09:05:40.556Z,12.00
2019-01-17T09:08:08.162Z,9.83
2019-01-17T09:10:35.973Z,9.70
2019-01-17T09:13:03.801Z,8.93
2019-01-17T09:15:33.587Z,10.37
2019-01-17T09:18:01.194Z,10.20
2019-01-17T09:20:28.926Z,9.97
2019-01-17T09:22:56.526Z,10.10
2019-01-17T09:25:24.231Z,10.60
2019-01-17T09:27:51.922Z,10.03
2019-01-17T09:30:19.650Z,10.87
2019-01-17T09:32:47.452Z,11.70
2019-01-17T09:35:15.564Z,11.23
2019-01-17T09:37:44.324Z,11.50
2019-01-17T09:40:16.882Z,12.17
2019-01-17T09:42:44.674Z,12.40
2019-01-17T09:45:12.992Z,12.13
2019-01-17T09:47:40.669Z,13.03
2019-01-17T09:50:14.951Z,12.70
2019-01-17T09:52:44.249Z,10.23
2019-01-17T09:55:15.684Z,10.97
2019-01-17T09:57:44.410Z,10.40
2019-01-17T10:00:18.112Z,9.77
2019-01-17T10:02:45.839Z,9.87
2019-01-17T10:05:13.615Z,10.67
2019-01-17T10:07:41.505Z,10.10
2019-01-17T10:10:11.960Z,10.90
2019-01-17T10:12:39.550Z,10.97
2019-01-17T10:15:11.803Z,9.37
2019-01-17T10:18:17.455Z,8.33
2019-01-17T10:21:42.088Z,8.00
2019-01-17T10:24:48.012Z,10.23
2019-01-17T10:27:45.227Z,10.20
2019-01-17T10:30:27.883Z,11.47
2019-01-17T10:33:27.161Z,11.17
2019-01-17T10:36:44.300Z,11.53
2019-01-17T10:39:55.326Z,10.50
2019-01-17T10:42:56.078Z,9.93
2019-01-17T10:45:54.158Z,9.97
2019-01-17T10:49:00.190Z,9.67
2019-01-17T10:51:41.325Z,8.40
2019-01-17T10:54:53.415Z,9.23
2019-01-17T10:57:33.049Z,10.13
2019-01-17T11:00:36.144Z,10.30
2019-01-17T11:03:25.397Z,7.23
2019-01-17T11:06:15.383Z,6.83
2019-01-17T11:09:15.120Z,7.30
2019-01-17T11:12:20.174Z,6.73
2019-01-17T11:15:26.091Z,7.50
2019-01-17T11:18:47.135Z,6.40
2019-01-17T11:21:58.128Z,7.00
2019-01-17T11:25:02.979Z,6.77
2019-01-17T11:28:11.631Z,6.40
2019-01-17T11:31:17.049Z,6.63
2019-01-17T11:34:08.776Z,6.90
2019-01-17T11:37:33.075Z,6.30
2019-01-17T11:40:19.524Z,6.77
2019-01-17T11:43:36.721Z,5.83
2019-01-17T11:46:41.639Z,6.67
2019-01-17T11:49:37.102Z,6.33
2019-01-17T11:52:55.761Z,6.50
2019-01-17T11:56:03.434Z,6.43
2019-01-17T11:59:33.974Z,5.93
2019-01-17T12:02:58.674Z,6.97
2019-01-17T12:05:26.426Z,6.10
2019-01-17T12:07:54.256Z,5.90
2019-01-17T12:10:21.924Z,6.63
2019-01-17T12:12:50.005Z,6.87
2019-01-17T12:15:17.793Z,6.50
2019-01-17T12:17:45.505Z,6.07
2019-01-17T12:20:13.269Z,7.00
2019-01-17T12:22:40.970Z,5.73
2019-01-17T12:25:08.718Z,6.43
2019-01-17T12:27:42.358Z,5.93
2019-01-17T12:30:10.143Z,6.87
2019-01-17T12:32:37.693Z,5.87
2019-01-17T12:35:06.305Z,5.10
2019-01-17T12:37:35.790Z,6.00
2019-01-17T12:40:04.480Z,6.63
2019-01-17T12:42:32.111Z,5.47
2019-01-17T12:44:59.761Z,6.53
2019-01-17T12:47:30.291Z,6.37
2019-01-17T12:49:57.924Z,5.20
2019-01-17T12:52:25.562Z,5.83
2019-01-17T12:54:53.370Z,6.10
2019-01-17T12:57:20.943Z,6.70
2019-01-17T12:59:48.643Z,5.93
2019-01-17T13:02:16.243Z,6.50
2019-01-17T13:04:43.958Z,6.80
2019-01-17T13:07:11.587Z,6.10
2019-01-17T13:09:39.243Z,6.10
2019-01-17T13:12:06.823Z,6.20
2019-01-17T13:14:36.355Z,6.43
2019-01-17T13:17:04.040Z,6.43
2019-01-17T13:19:31.705Z,5.53
2019-01-17T13:21:59.515Z,5.57
2019-01-17T13:24:27.188Z,6.40
2019-01-17T13:27:00.578Z,5.77
2019-01-17T13:29:24.296Z,5.00
2019-01-17T13:31:52.033Z,5.10
2019-01-17T13:34:19.849Z,4.50
2019-01-17T13:36:47.517Z,5.17
2019-01-17T13:39:15.089Z,5.20
2019-01-17T13:41:42.774Z,5.13
2019-01-17T13:44:10.407Z,6.13
2019-01-17T13:46:38.106Z,6.50
2019-01-17T13:49:05.738Z,6.53
2019-01-17T13:51:33.407Z,6.77
2019-01-17T13:54:00.986Z,6.30
2019-01-17T13:56:28.627Z,6.10
2019-01-17T13:58:56.245Z,6.10
2019-01-17T14:01:23.913Z,5.27
2019-01-17T14:03:51.472Z,6.37
2019-01-17T14:06:19.175Z,5.23
2019-01-17T14:08:46.733Z,5.30
2019-01-17T14:11:14.382Z,5.27
2019-01-17T14:13:41.939Z,6.93
2019-01-17T14:16:09.669Z,6.17
2019-01-17T14:18:37.264Z,6.20
2019-01-17T14:21:04.902Z,6.43
2019-01-17T14:23:32.518Z,6.40
2019-01-17T14:26:00.239Z,5.43
2019-01-17T14:28:27.956Z,5.53
2019-01-17T14:30:55.800Z,5.60
2019-01-17T14:33:23.546Z,5.07
2019-01-17T14:35:51.178Z,5.37
2019-01-17T14:38:18.862Z,4.67
2019-01-17T14:40:46.495Z,5.13
2019-01-17T14:43:14.111Z,4.50
2019-01-17T14:45:41.655Z,5.37
2019-01-17T14:48:09.379Z,5.47
2019-01-17T14:50:40.008Z,4.77
2019-01-17T14:53:07.848Z,5.70
2019-01-17T14:55:35.753Z,6.30
2019-01-17T14:58:03.624Z,6.73
2019-01-17T15:00:32.522Z,5.90
2019-01-17T15:03:00.204Z,6.50
2019-01-17T15:05:27.887Z,4.97
2019-01-17T15:07:55.501Z,4.57
2019-01-17T15:10:34.929Z,3.87
2019-01-17T15:13:02.586Z,3.87
2019-01-17T15:15:30.234Z,4.30
2019-01-17T15:17:57.906Z,4.23
2019-01-17T15:20:25.667Z,4.13
2019-01-17T15:22:53.374Z,3.80
2019-01-17T15:25:21.195Z,4.07
2019-01-17T15:27:51.948Z,3.80
2019-01-17T15:30:21.778Z,4.03
2019-01-17T15:32:49.912Z,4.30
2019-01-17T15:35:17.633Z,4.90
2019-01-17T15:37:45.349Z,4.57
2019-01-17T15:40:16.009Z,5.47
2019-01-17T15:42:45.440Z,5.90
2019-01-17T15:45:13.264Z,2.93
2019-01-17T15:47:40.929Z,4.27
2019-01-17T15:50:11.850Z,3.60
2019-01-17T15:52:39.535Z,2.87
2019-01-17T15:55:11.719Z,3.10
2019-01-17T15:57:42.706Z,2.90
2019-01-17T16:00:19.884Z,2.67
2019-01-17T16:02:48.448Z,2.90
2019-01-17T16:05:16.550Z,3.20
2019-01-17T16:07:44.405Z,4.20
2019-01-17T16:10:13.678Z,4.63
2019-01-17T16:12:41.750Z,4.57
2019-01-17T16:15:15.150Z,4.50
2019-01-17T16:17:43.691Z,3.70
2019-01-17T16:20:12.577Z,2.50
2019-01-17T16:22:40.615Z,2.30
2019-01-17T16:25:11.451Z,2.50
2019-01-17T16:27:41.767Z,2.43
2019-01-17T16:30:15.795Z,2.70
2019-01-17T16:32:43.924Z,2.30
2019-01-17T16:35:17.943Z,2.77
2019-01-17T16:37:45.917Z,2.47
2019-01-17T16:40:17.057Z,2.90
2019-01-17T16:42:44.930Z,3.10
2019-01-17T16:45:14.385Z,4.13
2019-01-17T16:47:42.623Z,6.10
2019-01-17T16:50:13.618Z,4.37
2019-01-17T16:52:41.801Z,4.00
2019-01-17T16:55:10.263Z,4.07
2019-01-17T16:57:38.096Z,4.00
2019-01-17T17:00:14.402Z,11.13
2019-01-17T17:02:42.914Z,9.30
2019-01-17T17:05:10.989Z,7.33
2019-01-17T17:07:39.392Z,5.50
2019-01-17T17:10:08.423Z,5.93
2019-01-17T17:12:36.120Z,4.07
2019-01-17T17:15:05.177Z,3.73
2019-01-17T17:17:33.337Z,3.90
2019-01-17T17:20:01.315Z,4.17
2019-01-17T17:22:29.568Z,3.40
2019-01-17T17:24:57.486Z,3.50
2019-01-17T17:27:25.845Z,4.87
2019-01-17T17:29:57.052Z,4.77
2019-01-17T17:32:25.063Z,4.97
2019-01-17T17:34:53.721Z,4.93
2019-01-17T17:37:21.886Z,4.93
2019-01-17T17:39:49.956Z,4.87
2019-01-17T17:42:17.760Z,4.23
2019-01-17T17:44:45.806Z,3.30
2019-01-17T17:47:13.750Z,3.43
2019-01-17T17:49:41.729Z,3.50
2019-01-17T17:52:09.546Z,2.70
2019-01-17T17:54:40.059Z,2.80
2019-01-17T17:57:08.099Z,4.43
2019-01-17T17:59:36.136Z,3.27
2019-01-17T18:02:20.800Z,3.97
2019-01-17T18:05:00.448Z,4.27
2019-01-17T18:07:36.806Z,4.30
2019-01-17T18:10:12.060Z,4.13
2019-01-17T18:12:43.081Z,4.13
2019-01-17T18:15:15.120Z,4.63
2019-01-17T18:18:16.324Z,4.40
2019-01-17T18:20:48.276Z,4.47
2019-01-17T18:23:21.475Z,4.97
2019-01-17T18:26:48.692Z,6.37
2019-01-17T18:29:22.861Z,8.67
2019-01-17T18:32:01.327Z,9.93
2019-01-17T18:34:31.294Z,9.70
2019-01-17T18:37:19.659Z,11.40
2019-01-17T18:39:47.499Z,11.10
2019-01-17T18:42:15.667Z,9.80
2019-01-17T18:44:54.702Z,10.30
2019-01-17T18:47:26.665Z,9.10
2019-01-17T18:49:54.662Z,9.80
2019-01-17T18:52:22.859Z,9.60
2019-01-17T18:54:50.744Z,9.67
2019-01-17T18:57:19.231Z,9.00
2019-01-17T18:59:47.127Z,8.30
2019-01-17T19:02:15.106Z,8.57
2019-01-17T19:04:43.995Z,8.17
2019-01-17T19:07:11.955Z,8.53
2019-01-17T19:09:39.949Z,8.03
2019-01-17T19:12:08.075Z,9.63
2019-01-17T19:14:35.923Z,8.97
2019-01-17T19:17:04.600Z,8.93
2019-01-17T19:19:32.840Z,9.10
2019-01-17T19:22:00.781Z,9.87
2019-01-17T19:24:28.490Z,9.73
2019-01-17T19:26:56.279Z,11.03
2019-01-17T19:29:25.769Z,10.97
2019-01-17T19:31:53.677Z,11.00
2019-01-17T19:34:21.585Z,11.17
2019-01-17T19:36:49.607Z,11.53
2019-01-17T19:39:17.336Z,11.13
2019-01-17T19:41:45.277Z,11.47
2019-01-17T19:44:13.090Z,10.97
2019-01-17T19:46:41.628Z,11.23
2019-01-17T19:49:09.456Z,12.13
2019-01-17T19:51:37.583Z,10.10
2019-01-17T19:54:05.606Z,9.70
2019-01-17T19:56:35.199Z,9.77
2019-01-17T19:59:03.355Z,10.90
2019-01-17T20:01:31.096Z,10.17
2019-01-17T20:03:59.092Z,9.93
2019-01-17T20:06:27.137Z,10.43
2019-01-17T20:08:57.436Z,10.07
2019-01-17T20:11:26.598Z,10.87
2019-01-17T20:13:55.079Z,10.30
2019-01-17T20:16:23.238Z,9.80
2019-01-17T20:18:51.779Z,9.77
2019-01-17T20:21:19.644Z,10.57
2019-01-17T20:23:47.695Z,11.47
2019-01-17T20:26:15.767Z,12.13
2019-01-17T20:28:43.643Z,12.63
2019-01-17T20:31:14.521Z,12.83
2019-01-17T20:33:42.817Z,13.13
2019-01-17T20:36:10.778Z,12.13
2019-01-17T20:38:38.855Z,12.23
2019-01-17T20:41:06.971Z,11.97
2019-01-17T20:43:34.831Z,11.47
2019-01-17T20:46:02.672Z,11.80
2019-01-17T20:48:36.450Z,12.60
2019-01-17T20:51:04.167Z,13.33
2019-01-17T20:53:31.950Z,13.10
2019-01-17T20:56:01.604Z,14.87
2019-01-17T20:58:29.500Z,14.13
2019-01-17T21:01:21.687Z,14.33
2019-01-17T21:03:49.434Z,12.83
2019-01-17T21:06:17.245Z,12.23
2019-01-17T21:08:48.909Z,11.67
2019-01-17T21:11:22.794Z,11.63
2019-01-17T21:13:51.113Z,12.30
2019-01-17T21:16:19.416Z,11.73
2019-01-17T21:18:49.338Z,11.67
2019-01-17T21:21:23.577Z,11.43
2019-01-17T21:23:52.870Z,11.57
2019-01-17T21:26:28.540Z,12.00
2019-01-17T21:28:56.228Z,12.57
2019-01-17T21:31:24.164Z,13.43
2019-01-17T21:33:51.872Z,11.10
2019-01-17T21:36:25.630Z,11.10
2019-01-17T21:38:53.397Z,13.13
2019-01-17T21:41:21.662Z,11.70
2019-01-17T21:43:50.021Z,11.77
2019-01-17T21:46:18.861Z,11.83
2019-01-17T21:48:46.571Z,11.57
2019-01-17T21:51:17.533Z,10.40
2019-01-17T21:53:46.514Z,11.10
2019-01-17T21:56:14.177Z,11.17
2019-01-17T21:58:42.061Z,11.03
2019-01-17T22:01:09.833Z,10.30
2019-01-17T22:03:37.507Z,10.47
2019-01-17T22:06:07.872Z,11.47
2019-01-17T22:08:35.860Z,10.43
2019-01-17T22:11:03.595Z,11.20
2019-01-17T22:13:31.249Z,10.73
2019-01-17T22:15:58.996Z,10.27
2019-01-17T22:18:26.594Z,11.13
2019-01-17T22:20:54.347Z,10.73
2019-01-17T22:23:21.924Z,10.73
2019-01-17T22:25:49.599Z,10.73
2019-01-17T22:28:17.150Z,10.03
2019-01-17T22:30:44.848Z,10.63
2019-01-17T22:33:12.422Z,10.00
2019-01-17T22:35:40.212Z,9.50
2019-01-17T22:38:07.959Z,10.17
2019-01-17T22:40:35.642Z,9.93
2019-01-17T22:43:03.973Z,9.37
2019-01-17T22:45:31.756Z,9.73
2019-01-17T22:47:59.474Z,9.23
2019-01-17T22:50:27.274Z,6.27
2019-01-17T22:52:55.076Z,4.23
2019-01-17T22:55:22.804Z,2.73
2019-01-17T22:57:50.583Z,3.13
2019-01-17T23:01:12.136Z,2.53
2019-01-17T23:03:42.185Z,2.93
2019-01-17T23:06:09.833Z,2.60
2019-01-17T23:08:37.546Z,2.83
2019-01-17T23:11:05.292Z,2.70
2019-01-17T23:13:33.136Z,2.50
2019-01-17T23:16:00.857Z,2.60
2019-01-17T23:18:28.480Z,2.70
2019-01-17T23:20:56.151Z,2.90
2019-01-17T23:23:23.726Z,2.40
2019-01-17T23:25:51.378Z,2.40
2019-01-17T23:28:18.952Z,2.37
2019-01-17T23:30:46.622Z,2.33
2019-01-17T23:33:14.183Z,2.50
2019-01-17T23:35:41.867Z,2.20
2019-01-17T23:38:09.440Z,2.23
2019-01-17T23:40:37.070Z,1.70
2019-01-17T23:43:04.716Z,2.00
2019-01-17T23:45:32.471Z,2.00
2019-01-17T23:48:00.130Z,2.10
2019-01-17T23:50:27.756Z,2.00
2019-01-17T23:52:55.376Z,2.40
2019-01-17T23:55:23.062Z,2.20
2019-01-17T23:57:50.958Z,1.80
